This is the latest recevied weather packets stored in our database for station/object W8KVG. If no packets are shown the sender has not sent any weather packets the latest 10 day(s).
| Time | Temp. | Humidity | Pressure | Rain* | Wind** | Luminosity | Snow |
|---|---|---|---|---|---|---|---|
| 1778089270 | 11.67° C | 84% | 1009.4 hPa | 0 mm | - | 124 W/m² | - |
| 1778088968 | 11.67° C | 87% | 1009.5 hPa | 0 mm | - | 122 W/m² | - |
| 1778088664 | 11.67° C | 86% | 1009.5 hPa | 0 mm | - | 89 W/m² | - |
| 1778088362 | 12.22° C | 85% | 1009.6 hPa | 0 mm | - | 158 W/m² | - |
| 1778088058 | 12.22° C | 89% | 1009.6 hPa | 0 mm | - | 186 W/m² | - |
| 1778087755 | 11.67° C | 87% | 1009.6 hPa | 0 mm | - | 149 W/m² | - |
| 1778087453 | 11.11° C | 88% | 1009.6 hPa | 0 mm | - | 127 W/m² | - |
| 1778087150 | 10.56° C | 89% | 1009.6 hPa | 0 mm | - | 104 W/m² | - |
| 1778086842 | 11.11° C | 90% | 1009.5 hPa | 0 mm | - | 75 W/m² | - |
| 1778086539 | 11.11° C | 90% | 1009.6 hPa | 0 mm | - | 87 W/m² | - |
| 1778086230 | 11.11° C | 89% | 1009.5 hPa | 0 mm | - | 73 W/m² | - |
| 1778085927 | 11.67° C | 88% | 1009.3 hPa | 0 mm | - | 86 W/m² | - |
| 1778085625 | 11.67° C | 87% | 1009.3 hPa | 0 mm | - | 72 W/m² | - |
| 1778085320 | 11.67° C | 86% | 1009.3 hPa | 0 mm | - | 111 W/m² | - |
| 1778085016 | 12.22° C | 87% | 1009.2 hPa | 0 mm | - | 376 W/m² | - |
| 1778084712 | 11.67° C | 91% | 1009.3 hPa | 0 mm | - | 313 W/m² | - |
| 1778084404 | 10.56° C | 94% | 1009.2 hPa | 0 mm | - | 175 W/m² | - |
| 1778084101 | 10.56° C | 94% | 1009.1 hPa | 0 mm | - | 139 W/m² | - |
| 1778083798 | 10.56° C | 94% | 1009 hPa | 0 mm | - | 57 W/m² | - |
| 1778083496 | 10.56° C | 94% | 1009.1 hPa | 0 mm | - | 59 W/m² | - |
| 1778083193 | 10.56° C | 96% | 1009 hPa | 0 mm | - | 151 W/m² | - |
| 1778082891 | 10° C | 97% | 1009.2 hPa | 0 mm | - | 164 W/m² | - |
| 1778081783 | 10° C | 99% | 1008.5 hPa | 0 mm | - | 267 W/m² | - |
| 1778081480 | 8.89° C | 99% | 1008.7 hPa | 0 mm | - | 98 W/m² | - |
| 1778081177 | 9.44° C | 99% | 1008.7 hPa | 0 mm | - | 80 W/m² | - |
* Rain latest hour (hover to see other rain measurements)
** Current wind speed in m/s (hover to see current wind gust speed)